Time;durP1;ratioP1;P1;durP2;ratioP2;P2;SDS_P1;SDS_P2;PMS_P1;PMS_P2;Temp;Humidity;BMP_temperature;BMP_pressure;BME280_temperature;BME280_humidity;BME280_pressure;Samples;Min_cycle;Max_cycle;Signal;HPM_P1;HPM_P2
2022/09/28 00:01:18;;;;;;;3.60;2.10;;;;;;;9.07;93.66;99002.25;5015167;28;20096;-85
2022/09/28 00:03:47;;;;;;;6.20;2.05;;;;;;;9.05;94.41;98996.31;4995245;28;20053;-85
2022/09/28 00:06:20;;;;;;;3.72;2.30;;;;;;;9.08;94.11;99000.47;4980799;28;20048;-83
2022/09/28 00:08:49;;;;;;;5.63;2.20;;;;;;;9.06;93.98;98997.97;5008432;28;20056;-84
2022/09/28 00:11:19;;;;;;;3.75;1.92;;;;;;;9.05;93.82;99000.69;4979133;28;20042;-85
2022/09/28 00:13:50;;;;;;;2.35;1.75;;;;;;;9.07;93.62;99004.88;5031760;28;20045;-84
2022/09/28 00:16:21;;;;;;;4.53;2.10;;;;;;;9.05;93.42;98993.69;5014457;28;20104;-84
2022/09/28 00:18:51;;;;;;;3.20;2.00;;;;;;;9.03;93.97;98997.38;5014673;28;20053;-85
2022/09/28 00:21:21;;;;;;;3.35;2.20;;;;;;;9.01;93.85;98991.44;4995806;28;20096;-86
2022/09/28 00:24:17;;;;;;;3.25;2.33;;;;;;;8.92;94.61;98995.59;5027953;28;20064;-85
2022/09/28 00:26:56;;;;;;;4.05;2.05;;;;;;;8.92;94.80;98987.72;4991890;28;20045;-85
2022/09/28 00:29:35;;;;;;;7.82;1.92;;;;;;;8.83;95.58;98996.31;5012718;28;20515;-85
2022/09/28 00:32:10;;;;;;;4.32;2.40;;;;;;;8.81;95.62;98993.78;5002027;28;20048;-86
2022/09/28 00:34:42;;;;;;;2.92;2.35;;;;;;;8.82;95.29;98981.50;5010790;28;20642;-85
2022/09/28 00:37:17;;;;;;;;;;;;;;;8.80;95.87;98991.31;5001746;28;20440;-86
2022/09/28 00:39:48;;;;;;;2.60;2.30;;;;;;;8.68;97.19;98993.06;5006199;28;19925;-85
2022/09/28 00:42:20;;;;;;;4.35;2.60;;;;;;;8.64;97.34;98986.38;5018825;28;20033;-84
2022/09/28 00:44:54;;;;;;;3.70;2.60;;;;;;;8.71;96.67;98992.84;4974042;28;20178;-85
2022/09/28 00:47:39;;;;;;;3.20;2.42;;;;;;;8.72;96.60;98985.81;4990989;28;20548;-86
2022/09/28 00:50:23;;;;;;;3.47;2.50;;;;;;;8.74;96.83;98986.53;4991047;28;20055;-86
2022/09/28 00:52:59;;;;;;;4.35;2.83;;;;;;;8.76;96.81;98979.38;4994950;28;20073;-86
2022/09/28 00:55:39;;;;;;;5.65;2.42;;;;;;;8.74;96.83;98984.75;5028104;28;20059;-86
2022/09/28 00:58:10;;;;;;;4.82;2.85;;;;;;;8.73;96.19;98984.84;4996734;28;20101;-86
2022/09/28 01:00:40;;;;;;;3.53;2.95;;;;;;;8.77;96.48;98981.88;4995675;28;20045;-85
2022/09/28 01:03:47;;;;;;;;;;;;;;;;;;;;;
2022/09/28 01:06:23;;;;;;;;;;;;;;;8.61;97.31;98978.78;5003990;28;20052;-85
2022/09/28 01:08:51;;;;;;;4.40;2.58;;;;;;;8.64;97.69;98983.75;4988563;28;19997;-84
2022/09/28 01:11:19;;;;;;;3.42;2.60;;;;;;;8.70;96.62;98985.09;5001353;28;20056;-84
2022/09/28 01:13:50;;;;;;;3.97;2.75;;;;;;;8.65;97.49;98982.84;5013971;28;21608;-86
2022/09/28 01:16:27;;;;;;;5.10;2.42;;;;;;;8.61;97.32;98979.59;5000864;28;20076;-85
2022/09/28 01:19:00;;;;;;;3.08;2.50;;;;;;;8.65;97.51;98982.00;5015743;28;20045;-85
2022/09/28 01:22:05;;;;;;;2.40;2.20;;;;;;;8.71;97.20;98978.91;4995288;28;20045;-85
2022/09/28 01:24:41;;;;;;;3.58;2.90;;;;;;;8.67;97.92;98978.28;5029389;28;20064;-84
2022/09/28 01:27:34;;;;;;;;;;;;;;;8.67;97.45;98974.84;5013296;28;20041;-84
2022/09/28 01:30:17;;;;;;;3.17;2.08;;;;;;;8.73;97.35;98979.59;4995088;28;19928;-84
2022/09/28 01:33:04;;;;;;;5.05;2.67;;;;;;;8.83;96.12;98972.72;4982242;28;20053;-83
2022/09/28 01:35:53;;;;;;;3.47;2.45;;;;;;;8.80;96.56;98970.31;5011966;28;20049;-84
2022/09/28 01:38:23;;;;;;;3.38;2.55;;;;;;;8.73;97.19;98972.56;4991028;28;20137;-84
2022/09/28 01:40:51;;;;;;;3.55;2.45;;;;;;;8.75;96.52;98964.59;4997559;28;20135;-85
2022/09/28 01:43:24;;;;;;;3.20;2.10;;;;;;;8.68;97.72;98968.63;4980481;28;20096;-83
2022/09/28 01:46:04;;;;;;;3.80;2.40;;;;;;;8.68;97.48;98958.97;5012570;28;20052;-83
2022/09/28 01:48:52;;;;;;;3.03;2.33;;;;;;;8.68;97.69;98958.13;4999201;28;20100;-85
2022/09/28 01:51:29;;;;;;;3.47;2.22;;;;;;;8.69;97.28;98957.19;4992111;28;20064;-84
2022/09/28 01:54:01;;;;;;;5.22;2.30;;;;;;;8.70;97.21;98964.13;5017199;28;20033;-86
2022/09/28 01:57:01;;;;;;;3.05;2.30;;;;;;;8.71;97.46;98953.50;5009832;28;20049;-85
2022/09/28 01:59:32;;;;;;;2.33;1.95;;;;;;;8.75;96.28;98949.69;5009281;28;20054;-85
2022/09/28 02:02:15;;;;;;;4.82;2.58;;;;;;;8.75;97.30;98944.44;5027291;28;20072;-86
2022/09/28 02:04:53;;;;;;;2.70;2.10;;;;;;;8.72;97.00;98943.84;5029401;28;20081;-86
2022/09/28 02:07:26;;;;;;;2.70;2.00;;;;;;;8.71;97.07;98944.78;5017606;28;20045;-85
2022/09/28 02:10:01;;;;;;;3.17;2.13;;;;;;;8.66;97.42;98944.31;4990273;28;20132;-85
2022/09/28 02:13:06;;;;;;;2.92;2.45;;;;;;;8.67;97.66;98951.22;4988655;28;20052;-84
2022/09/28 02:16:02;;;;;;;6.22;2.40;;;;;;;8.73;97.54;98953.38;4992638;28;20057;-86
2022/09/28 02:18:31;;;;;;;4.07;2.50;;;;;;;8.78;96.63;98946.81;4995010;28;20045;-85
2022/09/28 02:21:10;;;;;;;3.83;2.67;;;;;;;8.79;96.31;98948.50;5010613;28;20036;-86
2022/09/28 02:23:38;;;;;;;4.10;3.17;;;;;;;8.82;95.51;98947.41;4998969;28;20077;-86
2022/09/28 02:26:11;;;;;;;4.43;3.10;;;;;;;8.79;95.84;98942.41;5029600;28;20037;-87
2022/09/28 02:28:41;;;;;;;7.35;3.80;;;;;;;8.83;95.73;98943.84;5023986;28;20056;-87
2022/09/28 02:31:11;;;;;;;4.03;3.13;;;;;;;8.81;95.54;98943.13;5031616;28;20093;-85
2022/09/28 02:33:42;;;;;;;3.95;3.10;;;;;;;8.83;95.57;98939.44;5016253;28;20508;-86
2022/09/28 02:36:10;;;;;;;4.40;3.45;;;;;;;8.80;96.45;98944.91;5010993;28;20049;-84
2022/09/28 02:38:38;;;;;;;6.28;3.78;;;;;;;8.70;96.82;98938.72;5015602;28;20061;-84
2022/09/28 02:41:31;;;;;;;5.00;3.95;;;;;;;8.60;98.09;98932.50;5034190;28;20041;-85
2022/09/28 02:43:59;;;;;;;3.90;3.25;;;;;;;8.64;97.37;98931.31;5039925;28;20040;-86
2022/09/28 02:47:14;;;;;;;6.40;4.18;;;;;;;8.66;97.50;98928.59;5005507;28;20068;-86
2022/09/28 02:50:07;;;;;;;4.55;4.05;;;;;;;8.65;97.54;98930.38;5010776;28;20067;-85
2022/09/28 02:53:18;;;;;;;4.00;3.60;;;;;;;8.65;97.22;98934.78;5023364;28;20046;-86
2022/09/28 02:56:07;;;;;;;4.30;3.72;;;;;;;8.65;97.59;98930.38;5017115;28;20052;-85
2022/09/28 02:58:53;;;;;;;5.35;3.90;;;;;;;8.72;97.26;98935.97;5030340;28;20064;-87
2022/09/28 03:01:59;;;;;;;6.97;4.05;;;;;;;8.80;96.69;98933.56;5028594;28;20055;-86
2022/09/28 03:04:41;;;;;;;4.10;3.70;;;;;;;8.81;96.60;98930.00;5006441;28;20057;-86
2022/09/28 03:07:52;;;;;;;5.50;4.55;;;;;;;8.81;96.22;98927.38;5008297;28;20042;-87
2022/09/28 03:10:36;;;;;;;4.78;3.95;;;;;;;8.83;96.40;98920.22;5015483;28;20052;-86
2022/09/28 03:13:06;;;;;;;5.22;4.28;;;;;;;8.80;96.69;98917.84;5016007;28;20061;-84
2022/09/28 03:15:34;;;;;;;6.18;4.10;;;;;;;8.80;96.18;98923.91;5013135;28;20057;-84
2022/09/28 03:18:13;;;;;;;6.20;4.85;;;;;;;8.82;96.55;98919.38;4981325;28;20057;-84
2022/09/28 03:20:41;;;;;;;5.50;4.07;;;;;;;8.80;96.92;98907.34;5027000;28;20057;-84
2022/09/28 03:23:09;;;;;;;4.53;3.70;;;;;;;8.77;96.91;98905.78;4993543;28;20421;-85
2022/09/28 03:25:52;;;;;;;6.57;4.68;;;;;;;8.75;96.80;98899.84;5011477;28;20048;-84
2022/09/28 03:28:24;;;;;;;5.75;4.38;;;;;;;8.77;96.77;98912.81;5012341;28;20084;-84
2022/09/28 03:30:55;;;;;;;5.10;3.70;;;;;;;8.79;96.56;98910.94;5013825;28;20049;-86
2022/09/28 03:33:57;;;;;;;5.75;5.05;;;;;;;8.76;96.40;98919.03;5018207;28;20041;-85
2022/09/28 03:36:30;;;;;;;4.65;4.05;;;;;;;8.69;96.08;98913.44;4983647;28;20057;-87
2022/09/28 03:38:58;;;;;;;4.82;4.30;;;;;;;8.66;96.34;98912.84;5018588;28;20060;-86
2022/09/28 03:41:31;;;;;;;5.65;4.70;;;;;;;8.62;97.00;98907.81;4979606;28;20038;-85
2022/09/28 03:44:00;;;;;;;4.93;4.32;;;;;;;8.58;97.08;98906.38;4990293;28;20049;-85
2022/09/28 03:46:29;;;;;;;5.47;4.63;;;;;;;8.47;97.47;98909.03;4990355;28;20049;-84
2022/09/28 03:49:00;;;;;;;6.60;4.97;;;;;;;8.41;98.08;98906.03;4997555;28;20444;-87
2022/09/28 03:51:32;;;;;;;4.95;4.38;;;;;;;8.34;98.68;98895.16;4996511;28;20050;-84
2022/09/28 03:53:59;;;;;;;7.03;4.93;;;;;;;8.39;98.39;98900.91;4998991;28;20050;-87
2022/09/28 03:56:29;;;;;;;8.38;5.40;;;;;;;8.41;98.23;98906.03;4992111;28;20575;-85
2022/09/28 03:58:58;;;;;;;10.23;5.53;;;;;;;8.38;98.22;98888.78;5003342;28;20427;-87
2022/09/28 04:01:26;;;;;;;5.38;4.88;;;;;;;8.40;97.54;98891.25;5001893;28;20045;-87
2022/09/28 04:03:58;;;;;;;9.52;5.03;;;;;;;8.43;97.44;98886.63;4987309;28;20527;-85
2022/09/28 04:06:27;;;;;;;7.38;5.15;;;;;;;8.44;97.41;98890.91;4990508;28;20050;-86
2022/09/28 04:08:56;;;;;;;5.70;4.63;;;;;;;8.45;96.96;98892.56;5006302;28;20099;-86
2022/09/28 04:11:25;;;;;;;6.38;5.03;;;;;;;8.46;97.18;98880.28;4997985;28;20057;-86
2022/09/28 04:13:53;;;;;;;6.80;5.03;;;;;;;8.47;97.19;98876.72;4997133;28;20045;-85
2022/09/28 04:16:23;;;;;;;9.10;4.93;;;;;;;8.47;96.86;98879.34;5017037;28;20037;-86
2022/09/28 04:18:51;;;;;;;5.95;4.82;;;;;;;8.44;96.42;98866.47;4986857;28;20045;-86
2022/09/28 04:21:19;;;;;;;8.85;5.25;;;;;;;8.45;96.34;98868.97;4997797;28;20480;-86
2022/09/28 04:23:47;;;;;;;10.52;5.63;;;;;;;8.47;96.46;98868.88;4999956;28;20049;-86
2022/09/28 04:26:18;;;;;;;7.03;6.25;;;;;;;8.45;96.41;98871.59;5001700;28;20531;-86
2022/09/28 04:31:38;;;;;;;6.03;4.70;;;;;;;8.33;96.88;98872.50;5017684;28;20057;-85
2022/09/28 04:34:07;;;;;;;6.30;4.30;;;;;;;8.30;96.51;98878.00;4997812;28;20416;-87
2022/09/28 04:36:35;;;;;;;9.48;5.10;;;;;;;8.21;97.34;98873.47;4977123;28;20056;-84
2022/09/28 04:39:02;;;;;;;5.65;4.72;;;;;;;8.20;97.66;98877.88;5001079;28;20029;-84
2022/09/28 04:41:30;;;;;;;5.38;4.82;;;;;;;8.24;97.47;98884.56;4973803;28;20065;-85
2022/09/28 04:43:57;;;;;;;7.57;5.15;;;;;;;8.29;97.47;98881.59;5005660;28;20148;-84
2022/09/28 04:46:44;;;;;;;10.23;5.50;;;;;;;8.33;97.42;98885.59;4991217;28;20053;-85
2022/09/28 04:49:16;;;;;;;6.57;5.50;;;;;;;8.35;97.48;98881.09;5021763;28;20049;-86
2022/09/28 04:51:46;;;;;;;7.05;5.70;;;;;;;8.27;97.88;98879.06;4988705;28;20080;-84
2022/09/28 04:54:15;;;;;;;6.13;5.10;;;;;;;8.23;98.11;98880.25;4990379;28;20100;-85
2022/09/28 04:56:52;;;;;;;6.20;5.32;;;;;;;8.28;98.02;98890.38;4993421;28;20421;-84
2022/09/28 04:59:25;;;;;;;9.20;5.25;;;;;;;8.31;97.36;98890.97;5012111;28;20133;-85
2022/09/28 05:01:59;;;;;;;7.63;5.25;;;;;;;8.37;98.07;98881.84;4991840;28;20046;-86
2022/09/28 05:04:29;;;;;;;7.75;5.35;;;;;;;8.44;97.33;98888.28;5012528;28;20141;-85
2022/09/28 05:06:57;;;;;;;8.63;5.93;;;;;;;8.40;98.19;98884.22;5008846;28;20038;-86
2022/09/28 05:09:26;;;;;;;9.05;5.57;;;;;;;8.43;98.45;98886.63;4998206;28;20114;-84
2022/09/28 05:11:55;;;;;;;7.30;5.95;;;;;;;8.44;98.29;98887.44;4993236;28;20045;-86
2022/09/28 05:14:23;;;;;;;5.88;5.22;;;;;;;8.45;98.68;98889.13;4980813;28;20412;-86
2022/09/28 05:16:50;;;;;;;8.77;6.82;;;;;;;8.44;98.19;98893.53;4994250;28;20037;-85
2022/09/28 05:19:18;;;;;;;6.60;5.43;;;;;;;8.34;99.04;98893.38;5012254;28;20045;-87
2022/09/28 05:21:48;;;;;;;7.43;5.45;;;;;;;8.33;98.89;98896.09;5015136;28;20140;-85
2022/09/28 05:24:15;;;;;;;6.80;5.18;;;;;;;8.39;98.99;98897.47;5013171;28;20045;-91
2022/09/28 05:26:46;;;;;;;7.20;5.43;;;;;;;8.39;99.09;98886.97;4999901;28;20148;-88
2022/09/28 05:29:19;;;;;;;6.90;5.05;;;;;;;8.40;100.00;98889.47;5018216;28;20511;-86
2022/09/28 05:31:46;;;;;;;7.50;5.18;;;;;;;8.46;99.14;98891.59;5006821;28;20057;-87
2022/09/28 05:34:13;;;;;;;6.68;5.88;;;;;;;8.52;98.61;98887.69;5000804;28;20049;-88
2022/09/28 05:36:44;;;;;;;6.18;5.50;;;;;;;8.46;98.44;98888.97;5008659;28;20053;-87
2022/09/28 05:39:11;;;;;;;10.15;6.32;;;;;;;8.40;99.50;98886.00;5019391;28;20050;-86
2022/09/28 05:41:40;;;;;;;10.20;6.43;;;;;;;8.39;98.98;98889.59;5019211;28;20045;-87
2022/09/28 05:44:07;;;;;;;8.52;5.90;;;;;;;8.34;99.84;98879.44;5015385;28;20054;-86
2022/09/28 05:46:35;;;;;;;6.53;5.15;;;;;;;8.38;100.00;98882.69;4985001;28;20136;-86
2022/09/28 05:49:02;;;;;;;10.18;5.93;;;;;;;8.26;100.00;98885.25;5000212;28;20044;-86
2022/09/28 05:51:31;;;;;;;8.60;6.20;;;;;;;8.15;100.00;98880.03;5007551;28;20064;-86
2022/09/28 05:53:58;;;;;;;8.98;6.38;;;;;;;8.16;100.00;98876.44;4998690;28;20159;-87
2022/09/28 05:56:32;;;;;;;7.90;6.43;;;;;;;8.22;100.00;98880.38;5017184;28;20055;-85
2022/09/28 05:59:00;;;;;;;9.63;6.13;;;;;;;8.26;100.00;98879.19;4997656;28;20054;-85
2022/09/28 06:01:28;;;;;;;7.97;5.90;;;;;;;8.33;100.00;98873.38;4999436;28;20048;-85
2022/09/28 06:03:58;;;;;;;7.53;5.95;;;;;;;8.42;100.00;98863.97;4993338;28;20042;-86
2022/09/28 06:06:26;;;;;;;8.90;5.30;;;;;;;8.45;100.00;98860.25;5014743;28;20076;-86
2022/09/28 06:08:55;;;;;;;10.82;6.30;;;;;;;8.49;100.00;98862.53;4992931;28;20062;-87
2022/09/28 06:11:24;;;;;;;7.63;5.25;;;;;;;8.54;100.00;98864.78;4980288;28;20484;-88
2022/09/28 06:13:56;;;;;;;10.73;6.30;;;;;;;8.56;99.39;98855.03;5006439;28;20375;-87
2022/09/28 06:16:24;;;;;;;8.80;5.85;;;;;;;8.53;99.65;98861.34;4984378;28;20449;-86
2022/09/28 06:18:52;;;;;;;8.43;5.40;;;;;;;8.55;99.98;98856.78;4965717;28;20080;-87
2022/09/28 06:21:20;;;;;;;10.30;6.05;;;;;;;8.58;99.55;98853.09;4993386;28;20038;-87
2022/09/28 06:23:47;;;;;;;11.65;6.18;;;;;;;8.64;99.75;98855.22;5010199;28;20045;-86
2022/09/28 06:26:18;;;;;;;7.90;5.13;;;;;;;8.71;99.18;98848.56;5003737;28;20123;-87
2022/09/28 06:28:46;;;;;;;6.65;5.60;;;;;;;8.77;99.22;98849.84;4999400;28;20539;-85
2022/09/28 06:31:14;;;;;;;6.82;5.43;;;;;;;8.80;98.76;98844.38;4996208;28;20132;-86
2022/09/28 06:33:42;;;;;;;9.07;6.55;;;;;;;8.78;99.04;98847.13;4997424;28;20308;-86
2022/09/28 06:36:12;;;;;;;7.95;6.43;;;;;;;8.83;98.29;98852.00;4997210;28;20436;-86
2022/09/28 06:38:39;;;;;;;10.30;6.32;;;;;;;8.88;98.22;98849.84;4979519;28;20049;-86
2022/09/28 06:41:07;;;;;;;8.88;6.47;;;;;;;8.91;97.33;98849.56;4992140;28;20085;-88
2022/09/28 06:43:47;;;;;;;10.40;7.03;;;;;;;8.88;97.49;98849.84;4980292;28;20046;-86
2022/09/28 06:46:15;;;;;;;9.20;7.05;;;;;;;8.91;98.07;98852.19;4995767;28;20050;-87
2022/09/28 06:48:43;;;;;;;8.60;6.32;;;;;;;8.95;97.89;98848.38;5013453;28;20036;-85
2022/09/28 06:51:21;;;;;;;8.57;6.65;;;;;;;8.94;97.69;98846.72;5018649;28;20037;-86
2022/09/28 06:53:52;;;;;;;10.98;6.30;;;;;;;8.99;97.94;98844.53;5016344;28;20046;-85
2022/09/28 06:56:20;;;;;;;10.55;7.45;;;;;;;9.08;97.15;98849.06;5018568;28;20119;-87
2022/09/28 06:58:47;;;;;;;7.32;6.47;;;;;;;9.13;97.04;98843.44;5029679;28;20143;-88
2022/09/28 07:01:15;;;;;;;12.18;6.75;;;;;;;9.15;96.97;98838.91;5000042;28;20041;-86
2022/09/28 07:03:43;;;;;;;10.73;7.45;;;;;;;9.18;97.13;98840.44;4979434;28;20056;-86
2022/09/28 07:06:11;;;;;;;7.47;6.28;;;;;;;9.20;96.93;98836.72;4983395;28;20049;-86
2022/09/28 07:08:39;;;;;;;14.25;6.90;;;;;;;9.25;96.39;98837.19;5000046;28;20105;-86
2022/09/28 07:11:07;;;;;;;9.52;6.90;;;;;;;9.26;96.52;98833.59;5003334;28;20567;-86
2022/09/28 07:13:36;;;;;;;10.10;7.40;;;;;;;9.28;96.18;98841.38;5007784;28;20061;-86
2022/09/28 07:16:17;;;;;;;10.73;7.38;;;;;;;9.27;96.26;98839.69;5000707;28;20047;-86
2022/09/28 07:18:52;;;;;;;11.10;8.38;;;;;;;9.33;96.25;98836.56;5005658;28;20041;-85
2022/09/28 07:21:19;;;;;;;12.57;7.05;;;;;;;9.41;95.75;98838.53;4985868;28;20514;-86
2022/09/28 07:24:04;;;;;;;11.88;7.95;;;;;;;9.46;95.83;98841.66;5011037;28;20050;-85
2022/09/28 07:26:32;;;;;;;12.07;7.97;;;;;;;9.52;95.20;98838.50;5001337;28;20048;-85
2022/09/28 07:29:00;;;;;;;9.73;7.50;;;;;;;9.54;94.44;98844.44;5004217;28;20092;-85
2022/09/28 07:31:28;;;;;;;9.93;7.25;;;;;;;9.56;94.00;98838.13;4999879;28;20045;-87
2022/09/28 07:33:57;;;;;;;9.07;6.88;;;;;;;9.61;94.15;98851.69;4998879;28;20124;-86
2022/09/28 07:36:24;;;;;;;10.02;6.97;;;;;;;9.71;94.33;98848.31;5003702;28;20160;-86
2022/09/28 07:38:52;;;;;;;10.57;8.07;;;;;;;9.76;94.18;98849.56;5002631;28;20041;-86
2022/09/28 07:41:31;;;;;;;10.48;8.30;;;;;;;9.87;93.32;98851.31;5016212;28;20079;-86
2022/09/28 07:44:04;;;;;;;9.45;7.93;;;;;;;9.94;93.00;98847.19;5003769;28;20045;-85
2022/09/28 07:46:32;;;;;;;14.20;8.45;;;;;;;10.04;92.20;98850.72;5008509;28;20131;-86
2022/09/28 07:49:04;;;;;;;10.02;8.07;;;;;;;10.11;91.29;98851.84;5009890;28;20124;-86
2022/09/28 07:51:37;;;;;;;11.95;8.57;;;;;;;10.15;91.49;98850.63;5016287;28;20223;-84
2022/09/28 07:54:05;;;;;;;12.85;8.68;;;;;;;10.22;90.92;98856.22;5053332;28;20068;-86
2022/09/28 07:56:35;;;;;;;9.32;7.95;;;;;;;10.21;90.93;98857.16;5012078;28;20112;-85
2022/09/28 07:59:02;;;;;;;11.60;8.40;;;;;;;10.22;91.32;98850.97;5021849;28;20046;-87
2022/09/28 08:01:31;;;;;;;9.52;8.15;;;;;;;10.23;91.06;98852.63;5038806;28;20029;-85
2022/09/28 08:03:58;;;;;;;14.90;9.07;;;;;;;10.26;91.01;98856.81;5038527;28;20183;-85
2022/09/28 08:06:29;;;;;;;11.18;8.80;;;;;;;10.26;90.68;98849.72;5034073;28;20042;-85
2022/09/28 08:08:58;;;;;;;12.75;7.68;;;;;;;10.34;90.66;98849.09;5002219;28;20045;-87
2022/09/28 08:11:26;;;;;;;14.88;9.07;;;;;;;10.39;90.14;98847.72;4998434;28;20076;-87
2022/09/28 08:13:54;;;;;;;9.82;7.75;;;;;;;10.41;89.97;98844.16;5025257;28;20037;-85
2022/09/28 08:16:22;;;;;;;12.05;7.32;;;;;;;10.44;90.10;98842.06;5011421;28;20041;-86
2022/09/28 08:18:50;;;;;;;16.25;8.35;;;;;;;10.43;89.47;98852.72;5010698;28;20045;-87
2022/09/28 08:24:07;;;;;;;11.23;7.65;;;;;;;10.53;89.17;98857.03;5045961;28;20587;-86
2022/09/28 08:26:48;;;;;;;11.90;7.65;;;;;;;10.57;88.07;98866.34;5031049;28;20105;-86
2022/09/28 08:29:20;;;;;;;9.13;7.47;;;;;;;10.64;86.77;98866.66;5018388;28;20059;-87
2022/09/28 08:31:48;;;;;;;8.95;7.15;;;;;;;10.67;86.57;98865.53;5002524;28;20113;-88
2022/09/28 08:34:16;;;;;;;11.05;9.23;;;;;;;10.69;86.25;98864.44;5035089;28;20053;-87
2022/09/28 08:36:55;;;;;;;10.48;7.30;;;;;;;10.75;86.31;98863.91;5042797;28;20037;-87
2022/09/28 08:39:26;;;;;;;7.43;6.38;;;;;;;10.76;85.93;98870.00;5004433;28;20041;-86
2022/09/28 08:42:16;;;;;;;8.77;5.85;;;;;;;10.76;85.51;98864.72;5036532;28;20045;-87
2022/09/28 08:44:52;;;;;;;6.90;6.15;;;;;;;10.83;85.58;98871.97;5018537;28;20042;-87
2022/09/28 08:50:36;;;;;;;8.88;5.78;;;;;;;10.93;85.62;98871.97;5037068;28;20030;-87
2022/09/28 08:53:42;;;;;;;6.88;5.63;;;;;;;10.99;85.18;98873.25;5020260;28;20147;-87
2022/09/28 08:56:48;;;;;;;8.23;6.65;;;;;;;11.01;85.49;98872.13;5016105;28;20053;-87
2022/09/28 08:59:25;;;;;;;7.88;6.70;;;;;;;11.05;85.53;98875.34;5020439;28;20045;-87
2022/09/28 09:02:02;;;;;;;10.98;6.10;;;;;;;11.05;85.24;98876.16;5054671;28;20053;-87
2022/09/28 09:04:32;;;;;;;7.00;5.93;;;;;;;11.00;85.15;98878.38;5015206;28;20061;-87
2022/09/28 09:08:00;;;;;;;8.88;5.97;;;;;;;11.02;83.37;98881.69;5036698;28;20036;-88
2022/09/28 09:11:09;;;;;;;6.72;5.55;;;;;;;10.97;82.77;98876.00;4972599;28;20176;-86
2022/09/28 09:14:01;;;;;;;7.65;6.22;;;;;;;10.97;82.82;98867.28;4955667;29;20083;-87
2022/09/28 09:16:35;;;;;;;7.35;5.88;;;;;;;11.07;82.65;98874.22;5050200;28;20060;-86
2022/09/28 09:19:15;;;;;;;9.82;5.72;;;;;;;11.10;83.02;98873.97;5018055;28;20069;-87
2022/09/28 09:21:47;;;;;;;11.75;5.28;;;;;;;11.18;83.10;98869.81;5022299;28;20071;-87
2022/09/28 09:24:32;;;;;;;7.65;5.22;;;;;;;11.27;80.87;98874.25;5012101;28;20109;-86
2022/09/28 09:27:36;;;;;;;5.32;4.45;;;;;;;11.34;79.76;98873.56;5040997;28;20057;-87
2022/09/28 09:30:27;;;;;;;5.85;4.15;;;;;;;11.44;79.87;98872.72;4998090;28;20041;-87
2022/09/28 09:33:08;;;;;;;4.00;3.63;;;;;;;11.44;79.86;98878.84;5012080;28;20120;-85
2022/09/28 09:35:54;;;;;;;5.60;4.00;;;;;;;11.51;79.74;98873.84;5018047;28;20053;-86
2022/09/28 09:38:54;;;;;;;6.53;4.43;;;;;;;11.64;79.87;98872.59;5019853;28;20041;-87
2022/09/28 09:41:56;;;;;;;4.90;3.63;;;;;;;11.71;79.92;98866.75;5002875;28;20127;-87
2022/09/28 09:44:40;;;;;;;7.00;4.57;;;;;;;11.74;78.95;98864.66;5031765;28;20392;-87
2022/09/28 09:47:12;;;;;;;5.30;3.72;;;;;;;11.76;79.61;98868.00;5035208;28;20481;-86
2022/09/28 09:51:39;;;;;;;;;;;;;;;;;;;;;
2022/09/28 09:53:58;;;;;;;5.13;3.80;;;;;;;11.87;78.24;98867.03;4946983;28;20408;-85
2022/09/28 09:57:11;;;;;;;4.00;3.60;;;;;;;11.95;78.56;98864.53;4957504;28;20404;-87
2022/09/28 09:59:48;;;;;;;4.22;3.20;;;;;;;11.98;76.90;98860.75;5017468;28;20052;-86
2022/09/28 10:02:30;;;;;;;4.38;2.95;;;;;;;11.96;74.57;98870.63;5027343;28;20136;-88
2022/09/28 10:05:20;;;;;;;5.68;3.08;;;;;;;11.96;75.92;98857.44;5001039;28;20049;-87
2022/09/28 10:07:55;;;;;;;5.07;2.45;;;;;;;11.99;75.89;98852.72;5012356;28;20052;-87
2022/09/28 10:11:04;;;;;;;4.35;2.70;;;;;;;12.00;76.39;98859.66;5014732;28;20033;-87
2022/09/28 10:13:47;;;;;;;5.35;2.60;;;;;;;12.06;74.35;98855.63;5017711;28;20136;-86
2022/09/28 10:16:44;;;;;;;8.48;2.70;;;;;;;12.08;74.06;98854.50;5015637;28;20073;-88
2022/09/28 10:19:34;;;;;;;3.58;2.13;;;;;;;12.00;73.24;98861.47;4996298;28;20075;-88
2022/09/28 10:23:11;;;;;;;;;;;;;;;;;;;;;
2022/09/28 10:26:23;;;;;;;7.88;2.25;;;;;;;11.85;74.01;98866.38;5012096;28;20108;-86
2022/09/28 10:28:54;;;;;;;6.53;2.25;;;;;;;11.87;74.37;98854.69;4980366;28;20050;-86
2022/09/28 10:31:42;;;;;;;5.15;1.20;;;;;;;11.87;72.92;98861.78;4999036;28;20096;-87
2022/09/28 10:34:15;;;;;;;5.72;1.90;;;;;;;11.88;73.54;98856.34;5029070;28;20041;-86
2022/09/28 10:37:09;;;;;;;4.05;1.60;;;;;;;11.82;72.82;98858.69;5001876;28;20077;-87
2022/09/28 10:39:52;;;;;;;3.33;1.58;;;;;;;11.89;71.70;98867.75;4979380;28;20077;-86
2022/09/28 10:42:27;;;;;;;3.17;1.17;;;;;;;11.98;70.79;98859.00;4967741;28;20474;-87
2022/09/28 10:45:22;;;;;;;7.45;1.60;;;;;;;11.99;70.02;98865.09;4985937;28;20148;-86
2022/09/28 10:47:54;;;;;;;8.27;1.30;;;;;;;11.94;69.71;98857.59;4989149;28;20045;-86
2022/09/28 10:50:30;;;;;;;5.40;1.42;;;;;;;11.96;68.76;98862.72;5018033;28;20179;-86
2022/09/28 10:53:21;;;;;;;7.63;1.52;;;;;;;11.88;68.42;98866.06;5009255;28;20045;-86
2022/09/28 10:56:01;;;;;;;6.10;1.92;;;;;;;11.92;70.38;98854.25;4996720;28;20124;-87
2022/09/28 10:58:39;;;;;;;6.68;1.42;;;;;;;12.06;69.44;98858.25;4996184;28;20068;-86
2022/09/28 11:01:24;;;;;;;2.38;1.08;;;;;;;12.21;70.00;98856.84;5000498;28;20041;-85
2022/09/28 11:04:03;;;;;;;2.47;1.27;;;;;;;12.27;68.61;98858.88;5011886;28;20041;-87
2022/09/28 11:06:36;;;;;;;4.25;1.27;;;;;;;12.37;69.84;98859.66;4975649;28;20056;-85
2022/09/28 11:09:17;;;;;;;6.15;1.20;;;;;;;12.53;69.04;98856.44;4998848;28;20041;-85
2022/09/28 11:11:46;;;;;;;6.40;1.77;;;;;;;12.64;68.41;98860.66;4982024;28;20081;-87
2022/09/28 11:14:30;;;;;;;5.18;1.60;;;;;;;12.82;68.91;98860.72;5004790;28;20052;-87
2022/09/28 11:17:33;;;;;;;3.38;1.13;;;;;;;12.86;67.35;98873.47;5001948;28;20053;-86
2022/09/28 11:20:23;;;;;;;3.10;1.30;;;;;;;12.64;68.20;98860.66;5000369;28;20053;-86
2022/09/28 11:22:57;;;;;;;7.88;2.28;;;;;;;12.75;69.46;98862.31;5013097;28;20133;-86
2022/09/28 11:25:30;;;;;;;7.78;2.28;;;;;;;12.74;70.31;98858.81;5012387;28;20073;-86
2022/09/28 11:28:00;;;;;;;3.78;1.40;;;;;;;12.78;70.56;98860.19;5009850;28;20057;-87
2022/09/28 11:30:39;;;;;;;4.25;2.13;;;;;;;12.85;69.37;98866.53;5014787;28;20058;-86
2022/09/28 11:36:15;;;;;;;5.38;1.60;;;;;;;12.54;70.44;98873.09;5000425;28;20049;-87
2022/09/28 11:39:16;;;;;;;4.82;1.45;;;;;;;12.39;70.19;98864.81;5013834;28;20191;-86
2022/09/28 11:42:09;;;;;;;2.67;1.55;;;;;;;12.28;70.09;98865.81;5000323;28;20092;-86
2022/09/28 11:44:47;;;;;;;4.78;1.80;;;;;;;12.38;71.80;98874.56;5003867;28;20053;-86
2022/09/28 11:47:44;;;;;;;2.22;1.35;;;;;;;12.38;71.15;98868.41;5017006;28;20357;-87
2022/09/28 11:50:30;;;;;;;3.72;1.58;;;;;;;12.26;70.79;98869.59;5001564;28;20056;-86
2022/09/28 11:53:21;;;;;;;7.25;1.63;;;;;;;12.30;71.56;98868.34;4995254;28;20135;-86
2022/09/28 11:56:14;;;;;;;1.83;1.30;;;;;;;12.50;71.55;98877.00;4998493;28;20038;-87
2022/09/28 11:59:15;;;;;;;3.20;1.60;;;;;;;12.85;71.35;98871.00;4999628;28;20046;-87
2022/09/28 12:02:27;;;;;;;4.70;1.10;;;;;;;13.13;66.95;98869.97;5002882;28;20037;-87
2022/09/28 12:05:37;;;;;;;4.10;1.43;;;;;;;13.22;66.26;98881.50;5013310;28;20485;-86
2022/09/28 12:08:26;;;;;;;4.88;1.38;;;;;;;13.32;66.88;98881.41;5034897;28;20904;-88
2022/09/28 12:11:04;;;;;;;6.43;1.48;;;;;;;13.27;66.32;98879.22;4995066;28;20053;-87
2022/09/28 12:13:43;;;;;;;1.58;1.13;;;;;;;13.00;65.61;98888.00;4999289;28;20045;-86
2022/09/28 12:16:18;;;;;;;5.57;1.08;;;;;;;12.81;64.98;98886.28;5046470;28;20044;-87
2022/09/28 12:19:18;;;;;;;11.38;2.17;;;;;;;12.88;66.82;98881.28;5019290;28;20053;-88
2022/09/28 12:21:58;;;;;;;4.85;1.10;;;;;;;12.97;65.25;98883.03;4993823;28;20053;-87
2022/09/28 12:24:53;;;;;;;3.70;1.58;;;;;;;13.12;65.17;98886.00;5006427;28;20075;-87
2022/09/28 12:27:43;;;;;;;6.85;1.50;;;;;;;12.88;65.42;98882.09;4997304;28;20107;-87
2022/09/28 12:30:20;;;;;;;5.38;1.63;;;;;;;12.83;65.96;98880.84;4993484;28;20117;-86
2022/09/28 12:32:59;;;;;;;9.85;1.15;;;;;;;12.83;64.92;98883.50;4998716;28;20147;-86
2022/09/28 12:35:59;;;;;;;6.65;1.00;;;;;;;12.68;65.45;98891.09;4976665;28;20669;-86
2022/09/28 12:39:08;;;;;;;5.90;1.13;;;;;;;12.74;64.82;98876.47;5005334;28;20049;-87
2022/09/28 12:42:34;;;;;;;1.88;0.88;;;;;;;12.76;65.32;98875.34;4990343;28;20049;-87
2022/09/28 12:45:37;;;;;;;4.25;1.10;;;;;;;12.76;64.33;98874.53;4998576;28;20047;-87